Time;durP1;ratioP1;P1;durP2;ratioP2;P2;SDS_P1;SDS_P2;PMS_P1;PMS_P2;Temp;Humidity;BMP_temperature;BMP_pressure;BME280_temperature;BME280_humidity;BME280_pressure;Samples;Min_cycle;Max_cycle;Signal;HPM_P1;HPM_P2
2024/04/08 00:00:59;;;;;;;7.20;2.60;;;;;;;18.54;53.10;101173.22;5001568;28;100242;-84
2024/04/08 00:03:24;;;;;;;6.78;2.60;;;;;;;18.50;53.05;101181.22;4974252;28;96989;-85
2024/04/08 00:05:52;;;;;;;4.63;1.50;;;;;;;18.46;53.51;101189.16;4977598;28;96924;-85
2024/04/08 00:08:19;;;;;;;5.53;2.10;;;;;;;18.42;53.50;101184.84;4974486;28;101478;-85
2024/04/08 00:10:44;;;;;;;4.63;2.70;;;;;;;18.41;53.75;101171.66;4980395;28;100271;-85
2024/04/08 00:13:09;;;;;;;6.63;2.05;;;;;;;18.41;53.62;101166.38;4977391;28;96792;-85
2024/04/08 00:15:35;;;;;;;6.22;2.67;;;;;;;18.41;53.71;101171.66;4974625;28;97284;-85
2024/04/08 00:18:01;;;;;;;5.25;2.50;;;;;;;18.41;53.83;101169.91;4980974;28;111515;-84
2024/04/08 00:20:26;;;;;;;6.50;2.13;;;;;;;18.39;53.59;101168.16;4976473;28;99906;-85
2024/04/08 00:22:52;;;;;;;6.90;2.53;;;;;;;18.36;53.70;101174.38;4966605;28;96883;-84
2024/04/08 00:25:18;;;;;;;8.07;3.38;;;;;;;18.34;54.12;101181.47;4990913;28;96824;-84
2024/04/08 00:27:43;;;;;;;8.60;2.60;;;;;;;18.32;53.86;101171.78;4982671;28;100424;-85
2024/04/08 00:30:09;;;;;;;7.50;2.65;;;;;;;18.28;54.33;101173.59;4987597;28;100083;-84
2024/04/08 00:32:34;;;;;;;6.38;3.25;;;;;;;18.24;54.13;101193.91;4992268;28;96777;-84
2024/04/08 00:35:00;;;;;;;8.38;3.08;;;;;;;18.20;54.35;101186.03;4991612;28;97367;-84
2024/04/08 00:37:26;;;;;;;6.63;2.22;;;;;;;18.16;54.35;101195.75;4987667;28;100365;-84
2024/04/08 00:39:51;;;;;;;5.53;2.20;;;;;;;18.13;54.86;101192.28;4973816;28;100430;-84
2024/04/08 00:42:17;;;;;;;6.32;2.88;;;;;;;18.12;55.08;101195.84;4973728;28;96811;-84
2024/04/08 00:44:43;;;;;;;8.80;2.63;;;;;;;18.09;54.85;101180.88;4979734;28;97041;-85
2024/04/08 00:47:11;;;;;;;7.72;2.70;;;;;;;18.09;55.11;101180.88;4970780;28;101018;-84
2024/04/08 00:49:38;;;;;;;5.35;3.75;;;;;;;18.07;55.07;101167.75;4980818;28;100770;-85
2024/04/08 00:52:05;;;;;;;11.30;2.78;;;;;;;18.08;55.25;101171.25;4984666;28;96781;-85
2024/04/08 00:54:31;;;;;;;6.10;3.40;;;;;;;18.07;54.89;101170.38;4974243;28;96825;-84
2024/04/08 00:57:00;;;;;;;6.43;3.72;;;;;;;18.08;55.24;101168.59;4967797;28;100331;-85
2024/04/08 00:59:26;;;;;;;9.30;3.80;;;;;;;18.07;55.27;101165.09;4972452;28;100656;-84
2024/04/08 01:01:52;;;;;;;5.97;2.92;;;;;;;18.07;55.06;101170.38;4973085;28;97269;-85
2024/04/08 01:04:17;;;;;;;7.65;2.90;;;;;;;18.06;55.15;101157.19;4979839;28;97071;-84
2024/04/08 01:06:43;;;;;;;7.63;2.83;;;;;;;18.04;55.09;101162.50;4970229;28;100901;-85
2024/04/08 01:09:09;;;;;;;7.15;2.80;;;;;;;18.01;55.22;101157.25;4979961;28;99951;-84
2024/04/08 01:11:36;;;;;;;9.60;2.90;;;;;;;17.98;55.38;101157.28;4975878;28;96990;-85
2024/04/08 01:14:01;;;;;;;6.80;2.92;;;;;;;17.97;55.57;101154.69;4978001;28;96837;-85
2024/04/08 01:16:26;;;;;;;7.82;3.63;;;;;;;17.95;55.31;101144.16;4982759;28;100415;-85
2024/04/08 01:18:53;;;;;;;6.70;3.10;;;;;;;17.94;55.67;101149.44;4989299;28;100288;-84
2024/04/08 01:21:19;;;;;;;5.82;3.67;;;;;;;17.93;55.90;101147.69;4976837;28;97320;-85
2024/04/08 01:23:44;;;;;;;7.47;3.42;;;;;;;17.92;55.79;101157.38;4981541;28;97711;-85
2024/04/08 01:26:10;;;;;;;5.78;3.00;;;;;;;17.89;55.89;101158.25;4993716;28;97991;-84
2024/04/08 01:28:38;;;;;;;7.10;3.15;;;;;;;17.87;56.21;101153.91;4971153;28;100325;-84
2024/04/08 01:31:04;;;;;;;9.30;4.43;;;;;;;17.83;55.90;101150.41;4989466;28;97071;-84
2024/04/08 01:33:30;;;;;;;6.78;3.92;;;;;;;17.80;56.27;101153.06;4984693;28;96851;-84
2024/04/08 01:36:00;;;;;;;7.00;3.50;;;;;;;17.78;56.27;101159.28;4989979;28;100667;-85
2024/04/08 01:38:29;;;;;;;10.15;4.20;;;;;;;17.73;56.50;101153.19;4988329;28;97451;-85
2024/04/08 01:40:54;;;;;;;;;;;;;;;17.69;55.63;101155.84;4993186;28;96870;-85
2024/04/08 01:43:20;;;;;;;7.20;3.50;;;;;;;17.74;55.89;101160.22;4991411;28;96815;-85
2024/04/08 01:45:46;;;;;;;6.82;3.40;;;;;;;17.72;55.97;101160.22;4988232;28;98151;-85
2024/04/08 01:48:12;;;;;;;8.02;3.53;;;;;;;17.69;56.45;101155.84;4978805;28;97598;-85
2024/04/08 01:50:37;;;;;;;9.00;4.30;;;;;;;17.67;56.31;101143.59;4981915;28;97027;-85
2024/04/08 01:53:03;;;;;;;9.35;4.07;;;;;;;17.65;56.41;101146.25;4986711;28;96857;-84
2024/04/08 01:55:28;;;;;;;7.30;3.60;;;;;;;17.64;56.79;101139.19;4981903;28;100985;-85
2024/04/08 01:57:54;;;;;;;8.63;3.58;;;;;;;17.64;56.87;101138.34;4972671;28;100293;-85
2024/04/08 02:00:20;;;;;;;10.63;4.85;;;;;;;17.63;56.89;101129.56;4977286;28;96851;-85
2024/04/08 02:02:45;;;;;;;8.15;4.50;;;;;;;17.65;57.06;101129.53;4995230;28;96859;-85
2024/04/08 02:05:11;;;;;;;10.07;4.00;;;;;;;17.67;56.85;101122.47;4989291;28;97951;-85
2024/04/08 02:07:37;;;;;;;8.10;4.65;;;;;;;17.65;56.85;101114.59;4972596;28;100677;-85
2024/04/08 02:10:02;;;;;;;8.63;4.35;;;;;;;17.65;56.63;101113.72;4981852;28;96993;-85
2024/04/08 02:12:27;;;;;;;8.50;4.40;;;;;;;17.63;56.84;101112.84;4989040;28;96767;-85
2024/04/08 02:14:53;;;;;;;9.75;4.80;;;;;;;17.62;56.58;101114.59;4998424;28;97892;-87
2024/04/08 02:17:18;;;;;;;9.85;4.97;;;;;;;17.62;56.66;101109.34;4991980;28;100462;-85
2024/04/08 02:19:44;;;;;;;7.35;4.05;;;;;;;17.61;57.07;101102.34;4985650;28;96836;-85
2024/04/08 02:22:12;;;;;;;10.02;4.57;;;;;;;17.60;56.82;101119.03;4990530;28;96983;-85
2024/04/08 02:24:38;;;;;;;9.35;4.90;;;;;;;17.59;56.84;101112.00;4973172;28;100280;-85
2024/04/08 02:27:03;;;;;;;8.60;5.22;;;;;;;17.56;57.08;101112.06;4990275;28;97529;-85
2024/04/08 02:29:31;;;;;;;9.55;4.40;;;;;;;17.54;57.24;101107.69;4970552;28;96755;-85
2024/04/08 02:31:57;;;;;;;12.43;5.25;;;;;;;17.55;57.45;101106.81;4990439;28;96822;-85
2024/04/08 02:34:22;;;;;;;9.27;5.15;;;;;;;17.56;57.53;101111.16;4989008;28;100448;-84
2024/04/08 02:36:48;;;;;;;8.75;5.28;;;;;;;17.56;57.52;101122.63;4990438;28;100794;-84
2024/04/08 02:39:14;;;;;;;9.45;4.97;;;;;;;17.54;57.34;101111.22;4971915;28;96789;-85
2024/04/08 02:41:39;;;;;;;10.13;4.90;;;;;;;17.56;57.36;101111.16;4971221;28;96896;-85
2024/04/08 02:44:04;;;;;;;11.82;5.97;;;;;;;17.56;57.44;101109.44;4986406;28;100458;-85
2024/04/08 02:46:30;;;;;;;11.88;5.25;;;;;;;17.56;57.25;101111.16;4965033;28;99630;-85
2024/04/08 02:48:55;;;;;;;12.13;5.38;;;;;;;17.54;57.30;101105.94;4973695;28;96771;-85
2024/04/08 02:51:21;;;;;;;13.73;6.32;;;;;;;17.51;57.17;101109.47;4990484;28;97776;-85
2024/04/08 02:53:46;;;;;;;10.27;5.32;;;;;;;17.48;57.28;101111.28;4966810;28;100561;-85
2024/04/08 02:56:12;;;;;;;11.15;5.00;;;;;;;17.46;57.61;101102.50;4965426;28;100639;-84
2024/04/08 02:58:38;;;;;;;9.40;5.43;;;;;;;17.44;57.38;101089.34;4982742;28;96876;-85
2024/04/08 03:01:07;;;;;;;9.68;4.40;;;;;;;17.40;57.50;101078.88;4971462;28;97114;-84
2024/04/08 03:03:32;;;;;;;9.90;4.45;;;;;;;17.37;57.58;101089.44;4998771;28;100889;-85
2024/04/08 03:06:15;;;;;;;12.25;4.88;;;;;;;17.31;57.49;101088.63;4971560;28;100126;-84
2024/04/08 03:08:42;;;;;;;12.90;5.45;;;;;;;17.29;57.89;101103.59;4988143;28;96932;-85
2024/04/08 03:11:08;;;;;;;10.75;4.45;;;;;;;17.27;57.87;101094.81;4986890;28;96944;-85
2024/04/08 03:13:35;;;;;;;9.45;3.97;;;;;;;17.26;57.85;101103.59;4981547;28;100695;-85
2024/04/08 03:16:00;;;;;;;12.18;5.40;;;;;;;17.24;57.98;101100.13;4976115;28;100187;-85
2024/04/08 03:18:25;;;;;;;13.15;4.80;;;;;;;17.24;58.13;101089.56;4973486;28;97300;-85
2024/04/08 03:21:02;;;;;;;8.77;4.65;;;;;;;17.20;57.90;101106.31;4972872;28;96853;-84
2024/04/08 03:23:28;;;;;;;10.00;4.30;;;;;;;17.18;58.08;101105.44;4988192;28;100385;-85
2024/04/08 03:26:05;;;;;;;7.80;4.65;;;;;;;17.11;58.35;101109.94;4969318;28;100324;-84
2024/04/08 03:28:31;;;;;;;9.02;4.18;;;;;;;17.11;58.28;101111.66;4969679;28;96953;-85
2024/04/08 03:30:57;;;;;;;10.93;4.28;;;;;;;17.09;58.32;101116.97;4986254;28;96944;-85
2024/04/08 03:33:24;;;;;;;7.72;4.05;;;;;;;17.09;58.42;101105.53;4974630;28;100327;-85
2024/04/08 03:35:50;;;;;;;8.57;4.97;;;;;;;17.08;58.53;101107.31;4990940;28;99975;-85
2024/04/08 03:38:16;;;;;;;8.98;3.95;;;;;;;17.07;58.75;101092.38;4985878;28;97711;-85
2024/04/08 03:40:42;;;;;;;8.45;4.03;;;;;;;17.08;58.57;101088.88;4969502;28;96860;-86
2024/04/08 03:43:09;;;;;;;8.23;4.55;;;;;;;17.08;58.46;101080.09;4962170;28;100526;-85
2024/04/08 03:45:35;;;;;;;8.13;4.65;;;;;;;17.09;58.59;101080.09;4985483;28;101042;-86
2024/04/08 03:48:00;;;;;;;7.43;4.10;;;;;;;17.09;58.49;101072.19;4984077;28;97214;-86
2024/04/08 03:50:30;;;;;;;9.80;5.25;;;;;;;17.09;58.74;101082.72;4980603;28;96987;-86
2024/04/08 03:52:56;;;;;;;10.68;4.95;;;;;;;17.09;58.66;101084.47;4967294;28;100939;-85
2024/04/08 03:55:28;;;;;;;8.15;4.03;;;;;;;17.07;58.65;101087.09;4984121;28;100424;-85
2024/04/08 03:57:54;;;;;;;6.88;3.70;;;;;;;17.08;58.67;101090.63;4967426;28;96846;-85
2024/04/08 04:00:24;;;;;;;8.75;3.95;;;;;;;17.05;58.64;101088.03;4971575;28;96896;-85
2024/04/08 04:02:51;;;;;;;9.40;5.25;;;;;;;17.02;58.75;101077.50;4998036;28;97266;-85
2024/04/08 04:05:17;;;;;;;7.97;4.03;;;;;;;17.01;58.95;101076.63;4973822;28;100012;-85
2024/04/08 04:07:42;;;;;;;8.10;3.90;;;;;;;17.02;58.72;101072.22;4985309;28;96834;-85
2024/04/08 04:10:08;;;;;;;6.63;3.70;;;;;;;17.03;58.98;101068.72;4984230;28;97004;-85
2024/04/08 04:12:38;;;;;;;10.15;4.78;;;;;;;17.03;58.80;101063.44;4981904;28;100134;-86
2024/04/08 04:15:11;;;;;;;6.68;4.93;;;;;;;17.00;58.62;101052.94;4970147;28;100210;-86
2024/04/08 04:17:37;;;;;;;8.02;3.80;;;;;;;17.00;58.73;101045.91;4971944;28;96844;-85
2024/04/08 04:20:06;;;;;;;11.65;5.05;;;;;;;16.98;58.92;101031.00;4989124;28;96923;-85
2024/04/08 04:22:31;;;;;;;8.10;4.15;;;;;;;16.97;58.89;101016.06;4968124;28;100673;-85
2024/04/08 04:24:56;;;;;;;9.05;4.50;;;;;;;16.95;58.74;101016.09;4996784;28;100292;-85
2024/04/08 04:27:22;;;;;;;7.47;3.85;;;;;;;16.93;58.62;101024.03;4997874;28;97668;-85
2024/04/08 04:29:47;;;;;;;7.85;3.47;;;;;;;16.92;58.82;101009.09;4973777;28;96837;-86
2024/04/08 04:32:13;;;;;;;8.98;4.10;;;;;;;16.91;58.86;101017.03;4971116;28;100843;-86
2024/04/08 04:34:38;;;;;;;8.77;4.22;;;;;;;16.90;58.75;101041.63;4977856;28;97782;-86
2024/04/08 04:37:04;;;;;;;10.50;4.80;;;;;;;16.87;58.86;101039.88;4988728;28;96799;-86
2024/04/08 04:39:29;;;;;;;8.45;4.53;;;;;;;16.84;58.69;101045.19;4970445;28;96938;-85
2024/04/08 04:41:55;;;;;;;9.27;4.78;;;;;;;16.82;58.93;101044.28;4998291;28;100707;-86
2024/04/08 04:44:20;;;;;;;12.25;5.30;;;;;;;16.78;58.78;101037.31;4985043;28;97401;-86
2024/04/08 04:46:48;;;;;;;12.38;4.88;;;;;;;16.75;58.88;101034.72;4974161;28;96931;-85
2024/04/08 04:49:13;;;;;;;10.32;4.97;;;;;;;16.73;59.00;101047.03;4971619;28;97188;-85
2024/04/08 04:51:38;;;;;;;9.38;5.25;;;;;;;16.70;59.10;101047.94;4971372;28;100860;-85
2024/04/08 04:54:04;;;;;;;8.68;4.65;;;;;;;16.66;59.19;101050.59;4986376;28;97869;-85
2024/04/08 04:56:30;;;;;;;6.97;4.03;;;;;;;16.64;59.41;101044.47;4981204;28;97085;-85
2024/04/08 04:58:55;;;;;;;11.02;5.32;;;;;;;16.62;59.44;101051.53;4968421;28;96857;-86
2024/04/08 05:01:21;;;;;;;10.13;4.57;;;;;;;16.62;59.47;101062.06;4958811;28;100696;-85
2024/04/08 05:03:47;;;;;;;7.50;4.13;;;;;;;16.59;59.20;101075.25;4957827;28;99870;-85
2024/04/08 05:06:12;;;;;;;6.47;3.80;;;;;;;16.55;59.41;101082.31;4981082;28;96753;-86
2024/04/08 05:08:38;;;;;;;10.82;5.18;;;;;;;16.51;59.51;101073.56;4967387;28;96867;-85
2024/04/08 05:11:04;;;;;;;8.60;4.85;;;;;;;16.52;59.69;101079.69;4965996;28;100610;-85
2024/04/08 05:13:29;;;;;;;10.30;5.18;;;;;;;16.54;59.63;101080.53;4983087;28;100767;-86
2024/04/08 05:15:55;;;;;;;9.40;4.30;;;;;;;16.56;59.87;101087.56;4986876;28;96841;-85
2024/04/08 05:18:20;;;;;;;8.40;4.22;;;;;;;16.56;59.63;101098.09;4984868;28;96999;-85
2024/04/08 05:20:46;;;;;;;10.15;4.40;;;;;;;16.55;59.81;101098.97;4968330;28;101781;-86
2024/04/08 05:23:13;;;;;;;12.48;3.85;;;;;;;16.55;59.85;101092.84;4988029;28;97577;-85
2024/04/08 05:25:39;;;;;;;7.95;4.18;;;;;;;16.55;59.92;101098.97;4971005;28;96912;-85
2024/04/08 05:28:04;;;;;;;7.80;4.13;;;;;;;16.57;59.75;101109.50;4976686;28;96956;-86
2024/04/08 05:30:30;;;;;;;9.45;4.50;;;;;;;16.55;59.88;101098.09;4977842;28;100371;-85
2024/04/08 05:32:55;;;;;;;11.32;5.78;;;;;;;16.53;59.72;101106.00;4974615;28;100173;-85
2024/04/08 05:35:20;;;;;;;8.00;4.28;;;;;;;16.56;59.56;101107.75;4988881;28;96943;-86
2024/04/08 05:37:46;;;;;;;8.63;4.70;;;;;;;16.56;59.72;101127.06;4980107;28;96981;-85
2024/04/08 05:40:13;;;;;;;10.40;4.53;;;;;;;16.55;59.85;101127.94;4990808;28;97810;-86
2024/04/08 05:42:40;;;;;;;9.55;4.75;;;;;;;16.59;59.81;101135.81;4991178;28;99426;-85
2024/04/08 05:45:05;;;;;;;9.05;4.20;;;;;;;16.60;59.88;101148.13;4980875;28;97377;-85
2024/04/08 05:47:31;;;;;;;11.15;4.88;;;;;;;16.59;59.76;101149.00;4964628;28;96952;-85
2024/04/08 05:49:56;;;;;;;9.98;4.78;;;;;;;16.58;60.15;101149.84;4993116;28;97945;-85
2024/04/08 05:52:22;;;;;;;10.27;5.32;;;;;;;16.60;60.27;101137.59;4971085;28;100287;-86
2024/04/08 05:54:47;;;;;;;9.05;5.03;;;;;;;16.63;60.07;101113.84;4972443;28;97828;-84
2024/04/08 05:57:13;;;;;;;9.32;5.68;;;;;;;16.65;59.97;101097.16;4970600;28;97540;-85
2024/04/08 05:59:39;;;;;;;9.88;5.30;;;;;;;16.69;59.91;101095.38;4973621;28;99845;-86
2024/04/08 06:02:06;;;;;;;13.57;5.90;;;;;;;16.73;60.30;101103.19;4967973;28;97688;-84
2024/04/08 06:04:32;;;;;;;8.45;4.20;;;;;;;16.80;60.21;101090.00;4971216;28;97216;-84
2024/04/08 06:06:57;;;;;;;8.30;4.72;;;;;;;16.82;60.42;101096.97;4979914;28;96834;-84
2024/04/08 06:09:23;;;;;;;8.70;4.95;;;;;;;16.87;60.48;101097.00;4980027;28;100285;-84
2024/04/08 06:11:48;;;;;;;7.35;4.53;;;;;;;16.93;60.40;101104.81;4983596;28;100899;-84
2024/04/08 06:14:13;;;;;;;9.10;5.03;;;;;;;17.01;60.26;101112.66;4968818;28;97221;-84
2024/04/08 06:16:39;;;;;;;9.98;4.57;;;;;;;17.07;60.25;101095.00;4967277;28;96927;-84
2024/04/08 06:19:04;;;;;;;9.40;3.90;;;;;;;17.14;60.32;101109.00;4962992;28;100306;-84
2024/04/08 06:21:30;;;;;;;9.75;4.25;;;;;;;17.18;60.17;101113.34;4969798;28;100373;-84
2024/04/08 06:23:55;;;;;;;10.25;4.10;;;;;;;17.19;60.19;101109.84;4994119;28;96818;-84
2024/04/08 06:26:20;;;;;;;9.57;4.60;;;;;;;17.21;60.02;101108.06;4987053;28;96838;-85
2024/04/08 06:28:46;;;;;;;8.98;4.97;;;;;;;17.28;60.11;101101.81;4964397;28;102924;-85
2024/04/08 06:31:11;;;;;;;10.18;4.40;;;;;;;17.36;59.91;101098.22;4977079;28;100070;-85
2024/04/08 06:33:37;;;;;;;9.68;5.07;;;;;;;17.44;59.89;101089.34;4968859;28;96874;-84
2024/04/08 06:36:02;;;;;;;10.05;4.45;;;;;;;17.53;59.96;101090.13;4971718;28;97155;-85
2024/04/08 06:38:28;;;;;;;10.95;4.68;;;;;;;17.61;59.98;101091.78;4965586;28;100632;-85
2024/04/08 06:40:53;;;;;;;11.90;4.78;;;;;;;17.67;59.70;101090.81;4981039;28;100320;-86
2024/04/08 06:43:19;;;;;;;13.13;5.45;;;;;;;17.68;59.66;101098.72;4971175;28;96973;-86
2024/04/08 06:45:54;;;;;;;10.82;6.03;;;;;;;17.70;59.49;101102.22;4985236;28;96983;-86
2024/04/08 06:48:19;;;;;;;12.55;6.22;;;;;;;17.73;59.77;101110.97;4980538;28;100520;-86
2024/04/08 06:50:45;;;;;;;11.77;6.00;;;;;;;17.77;59.86;101107.41;4979343;28;100306;-86
2024/04/08 06:53:10;;;;;;;12.13;5.80;;;;;;;17.84;59.60;101107.31;4977486;28;96980;-86
2024/04/08 06:55:35;;;;;;;11.60;5.45;;;;;;;17.93;59.78;101105.47;4976774;28;96855;-86
2024/04/08 06:58:01;;;;;;;11.10;5.53;;;;;;;18.01;59.46;101115.00;4972383;28;100498;-86
2024/04/08 07:00:26;;;;;;;9.93;4.93;;;;;;;18.07;59.24;101124.63;4982922;28;100289;-86
2024/04/08 07:02:52;;;;;;;10.18;5.38;;;;;;;18.12;58.95;101129.84;4973106;28;96857;-86
2024/04/08 07:05:17;;;;;;;12.98;5.50;;;;;;;18.14;59.12;101122.75;4972923;28;96899;-86
2024/04/08 07:07:42;;;;;;;10.82;5.05;;;;;;;18.17;58.95;101130.66;4983285;28;100512;-85
2024/04/08 07:10:08;;;;;;;13.10;5.97;;;;;;;18.19;58.81;101121.78;4991152;28;100097;-86
2024/04/08 07:12:33;;;;;;;12.25;6.22;;;;;;;18.20;58.91;101125.31;4995716;28;96781;-86
2024/04/08 07:14:59;;;;;;;11.02;5.90;;;;;;;18.23;59.09;101119.97;4965015;28;96908;-85
2024/04/08 07:17:24;;;;;;;11.23;5.40;;;;;;;18.26;58.92;101120.81;4973598;28;100308;-85
2024/04/08 07:19:50;;;;;;;11.15;5.22;;;;;;;18.29;58.79;101117.28;4963421;28;100656;-85
2024/04/08 07:22:15;;;;;;;10.05;6.32;;;;;;;18.32;59.25;101124.25;4980058;28;96857;-86
2024/04/08 07:24:41;;;;;;;13.43;6.55;;;;;;;18.36;58.63;101118.91;4987943;28;96798;-85
2024/04/08 07:27:07;;;;;;;12.38;6.32;;;;;;;18.37;58.59;101120.66;4966676;28;100579;-87
2024/04/08 07:29:33;;;;;;;12.00;6.18;;;;;;;18.33;58.79;101124.25;4970040;28;100422;-85
2024/04/08 07:32:02;;;;;;;13.93;5.72;;;;;;;18.31;58.75;101126.03;4987221;28;97300;-86
2024/04/08 07:34:27;;;;;;;12.90;5.40;;;;;;;18.31;59.05;101118.13;4966814;28;97058;-85
2024/04/08 07:36:53;;;;;;;14.10;6.55;;;;;;;18.35;58.83;101119.81;4969435;28;100073;-86
2024/04/08 07:39:18;;;;;;;10.90;5.90;;;;;;;18.39;58.78;101120.63;4985837;28;100413;-87
2024/04/08 07:41:44;;;;;;;13.77;5.90;;;;;;;18.42;58.66;101123.22;4969980;28;96815;-86
2024/04/08 07:44:10;;;;;;;13.38;6.10;;;;;;;18.44;58.48;101129.34;4966530;28;97013;-86
2024/04/08 07:46:35;;;;;;;13.77;6.35;;;;;;;18.40;58.71;101123.25;4977862;28;97800;-85
2024/04/08 07:49:01;;;;;;;12.13;6.60;;;;;;;18.41;58.67;101111.81;4977805;28;100399;-84
2024/04/08 07:51:27;;;;;;;14.07;6.05;;;;;;;18.44;58.73;101108.22;4966239;28;97051;-85
2024/04/08 07:53:53;;;;;;;15.18;7.45;;;;;;;18.51;58.81;101098.44;4979270;28;96943;-85
2024/04/08 07:56:19;;;;;;;10.82;6.40;;;;;;;18.60;58.89;101091.22;4972669;28;100161;-86
2024/04/08 07:58:46;;;;;;;13.32;6.50;;;;;;;18.70;58.54;101094.59;5005513;28;97604;-85
2024/04/08 08:01:11;;;;;;;12.40;6.38;;;;;;;18.75;58.29;101084.81;4991009;28;96889;-83
2024/04/08 08:03:48;;;;;;;11.43;6.28;;;;;;;18.78;58.13;101075.97;4978434;28;97025;-86
2024/04/08 08:06:14;;;;;;;10.70;4.63;;;;;;;18.82;57.83;101078.56;4973690;28;100690;-85
2024/04/08 08:08:39;;;;;;;10.52;5.22;;;;;;;18.78;57.45;101078.59;4975006;28;100601;-85
2024/04/08 08:11:05;;;;;;;14.90;6.72;;;;;;;18.74;57.50;101063.72;4976239;28;97002;-85
2024/04/08 08:13:31;;;;;;;13.23;6.25;;;;;;;18.73;57.53;101062.81;4986209;28;98099;-86
2024/04/08 08:15:58;;;;;;;14.85;4.75;;;;;;;18.78;57.80;101055.69;4970138;28;101019;-86
2024/04/08 08:18:23;;;;;;;11.13;6.35;;;;;;;18.82;57.72;101046.84;4975429;28;100259;-85
2024/04/08 08:20:50;;;;;;;11.02;5.03;;;;;;;18.91;57.72;101043.16;4996805;28;96870;-85
2024/04/08 08:23:16;;;;;;;10.57;5.32;;;;;;;19.01;57.93;101036.78;4987580;28;96784;-86
2024/04/08 08:25:41;;;;;;;9.82;5.65;;;;;;;19.13;57.57;101037.47;4987490;28;97662;-86
2024/04/08 08:28:06;;;;;;;11.88;4.55;;;;;;;19.18;57.29;101032.97;4987968;28;100320;-86
2024/04/08 08:30:40;;;;;;;10.38;5.55;;;;;;;19.21;57.49;101024.94;4986341;28;96837;-87
2024/04/08 08:33:06;;;;;;;8.73;5.00;;;;;;;19.31;57.14;101041.50;4986721;28;96963;-86
2024/04/08 08:35:32;;;;;;;10.48;4.30;;;;;;;19.36;57.10;101032.56;4970517;28;100516;-86
2024/04/08 08:37:58;;;;;;;9.27;4.28;;;;;;;19.45;57.04;101027.97;4963212;28;100640;-86
2024/04/08 08:40:24;;;;;;;11.10;5.25;;;;;;;19.64;57.90;101028.44;4957133;28;96771;-85
2024/04/08 08:42:51;;;;;;;8.45;4.97;;;;;;;19.87;57.42;101027.97;4985095;28;96987;-86
2024/04/08 08:45:17;;;;;;;10.85;3.90;;;;;;;20.07;57.25;101023.09;4982922;28;100296;-86
2024/04/08 08:47:43;;;;;;;10.95;4.30;;;;;;;20.29;57.12;101023.41;4982852;28;97947;-86
2024/04/08 08:50:10;;;;;;;9.00;4.75;;;;;;;20.56;56.62;101012.16;4963604;28;96907;-90
2024/04/08 08:52:36;;;;;;;6.00;3.40;;;;;;;20.80;56.49;101008.88;4962751;28;97085;-93
2024/04/08 08:55:10;;;;;;;8.35;3.30;;;;;;;21.06;55.81;101012.59;4977854;28;96621;-93
2024/04/08 08:57:36;;;;;;;7.43;4.15;;;;;;;21.32;55.29;101021.56;4978243;28;97849;-93
2024/04/08 09:00:05;;;;;;;6.93;3.70;;;;;;;21.61;54.71;101013.63;5004614;28;96891;-93
2024/04/08 09:02:32;;;;;;;7.57;3.20;;;;;;;21.98;54.81;101020.44;4977452;28;96849;-94
2024/04/08 09:04:57;;;;;;;10.38;3.50;;;;;;;22.31;54.11;101024.75;4978732;28;98793;-89
2024/04/08 09:07:23;;;;;;;8.60;4.47;;;;;;;22.51;53.08;101029.38;4994633;28;100237;-91
2024/04/08 09:09:53;;;;;;;6.95;3.38;;;;;;;22.55;52.22;101021.25;4961081;28;96654;-92
2024/04/08 09:12:20;;;;;;;8.85;3.88;;;;;;;22.48;51.32;101019.72;5010415;28;96659;-91
2024/04/08 09:14:48;;;;;;;6.90;4.40;;;;;;;22.33;50.99;101009.59;4976898;28;100427;-91
2024/04/08 09:17:14;;;;;;;7.60;3.45;;;;;;;22.35;52.01;101003.34;4961535;28;100396;-92
2024/04/08 09:19:40;;;;;;;7.68;4.13;;;;;;;22.47;51.64;101001.16;4993529;28;96697;-91
2024/04/08 09:22:07;;;;;;;7.60;4.00;;;;;;;22.52;50.87;101012.50;4993912;28;96700;-92
2024/04/08 09:24:32;;;;;;;7.85;3.53;;;;;;;22.42;50.17;101020.81;5000366;28;100757;-92
2024/04/08 09:26:58;;;;;;;7.43;4.13;;;;;;;22.24;50.06;101019.56;4991707;28;100551;-93
2024/04/08 09:29:24;;;;;;;6.82;4.05;;;;;;;22.03;49.78;101022.94;4980514;28;96744;-94
2024/04/08 09:31:49;;;;;;;9.13;4.50;;;;;;;21.84;50.22;101023.53;4980304;28;96873;-89
2024/04/08 09:34:15;;;;;;;9.43;4.95;;;;;;;21.70;50.27;101023.09;4978948;28;100454;-95
2024/04/08 09:36:41;;;;;;;10.27;4.82;;;;;;;21.57;50.58;101021.72;4960470;28;99948;-91
2024/04/08 09:39:09;;;;;;;9.30;5.22;;;;;;;21.48;51.06;101022.91;4959961;28;96730;-90
2024/04/08 09:43:17;;;;;;;14.23;5.32;;;;;;;21.52;51.45;101013.91;5243101;26;94684;-90
2024/04/08 09:45:42;;;;;;;12.60;5.57;;;;;;;21.56;51.19;101002.28;5166313;27;94912;-90
2024/04/08 09:48:13;;;;;;;10.43;5.53;;;;;;;21.58;51.50;101005.75;5213710;26;98390;-87
2024/04/08 09:50:42;;;;;;;10.93;5.90;;;;;;;21.65;51.21;101001.13;5208297;26;98179;-87
2024/04/08 09:53:11;;;;;;;12.30;5.90;;;;;;;21.67;51.23;101000.19;5212819;26;95582;-87
2024/04/08 09:55:42;;;;;;;9.50;5.13;;;;;;;21.72;51.29;100985.91;5213853;26;94883;-86
2024/04/08 09:58:08;;;;;;;9.63;5.40;;;;;;;21.75;51.74;100983.16;5209375;26;95953;-86
2024/04/08 10:00:36;;;;;;;7.30;4.47;;;;;;;21.95;51.83;100961.25;5211629;26;95513;-89
2024/04/08 10:03:08;;;;;;;11.35;4.20;;;;;;;22.22;51.97;100960.31;5171731;26;96201;-89
2024/04/08 10:05:37;;;;;;;7.63;4.63;;;;;;;22.43;50.86;100976.50;5213484;26;94989;-87
2024/04/08 10:08:03;;;;;;;7.95;4.35;;;;;;;22.49;49.93;100970.09;5179941;27;98605;-88
2024/04/08 10:10:29;;;;;;;7.55;4.15;;;;;;;22.44;49.73;100975.53;5223351;26;95819;-89
2024/04/08 10:12:59;;;;;;;7.32;4.07;;;;;;;22.38;49.75;100975.78;5204028;27;94889;-89
2024/04/08 10:15:36;;;;;;;7.90;4.13;;;;;;;22.28;49.87;100982.31;5220263;26;95198;-90
2024/04/08 10:18:05;;;;;;;13.05;4.68;;;;;;;22.24;49.82;100979.72;5198231;27;97180;-90
2024/04/08 10:20:30;;;;;;;10.48;4.75;;;;;;;22.13;49.07;100981.88;5232787;26;95607;-93
2024/04/08 10:22:55;;;;;;;6.55;4.15;;;;;;;22.01;49.52;100976.97;5192053;27;94760;-91
2024/04/08 10:25:34;;;;;;;8.23;4.38;;;;;;;21.88;49.27;100965.03;5181706;27;95036;-86
2024/04/08 10:28:06;;;;;;;9.20;4.75;;;;;;;21.80;49.55;100981.19;5211624;26;98638;-89
2024/04/08 10:30:33;;;;;;;8.10;4.45;;;;;;;21.75;49.75;100973.41;5178354;27;98149;-89
2024/04/08 10:33:00;;;;;;;9.55;4.63;;;;;;;21.72;49.99;100968.16;5218140;26;94863;-88
2024/04/08 10:35:26;;;;;;;8.35;4.90;;;;;;;21.71;49.87;100958.50;5202830;26;95034;-89
2024/04/08 10:37:51;;;;;;;8.05;4.15;;;;;;;21.72;50.45;100960.22;5212237;26;95564;-89
2024/04/08 10:40:20;;;;;;;6.82;3.97;;;;;;;21.77;50.08;100960.06;5212412;27;95433;-88
2024/04/08 10:42:46;;;;;;;7.00;4.13;;;;;;;21.78;50.14;100954.72;5202096;27;95129;-89
2024/04/08 10:45:11;;;;;;;8.38;4.53;;;;;;;21.85;49.64;100961.56;5217344;27;94808;-89
2024/04/08 10:47:37;;;;;;;8.05;4.30;;;;;;;21.88;49.26;100965.03;5188076;26;98446;-88
2024/04/08 10:50:03;;;;;;;8.25;4.10;;;;;;;21.86;49.63;100968.59;5217763;26;98592;-90
2024/04/08 10:52:33;;;;;;;9.43;4.25;;;;;;;21.85;49.34;100973.94;5216410;26;94821;-88
2024/04/08 10:54:58;;;;;;;10.32;4.10;;;;;;;21.81;49.17;100969.66;5201177;27;94980;-88
2024/04/08 10:57:26;;;;;;;9.20;3.97;;;;;;;21.75;49.02;100961.91;5184464;27;98569;-88
2024/04/08 10:59:52;;;;;;;7.65;3.92;;;;;;;21.67;49.37;100952.41;5204265;26;95634;-87
2024/04/08 11:02:18;;;;;;;8.15;3.83;;;;;;;21.71;49.40;100946.97;5205632;26;94744;-86
2024/04/08 11:04:44;;;;;;;9.45;4.30;;;;;;;21.79;49.73;100950.28;5212412;26;94695;-90
2024/04/08 11:07:10;;;;;;;7.60;3.80;;;;;;;21.86;49.68;100947.34;5192378;27;98671;-84
2024/04/08 11:09:36;;;;;;;10.00;4.85;;;;;;;21.97;49.93;100938.16;5186563;27;95406;-84
2024/04/08 11:12:05;;;;;;;9.10;4.03;;;;;;;22.12;49.84;100942.97;5224163;26;95431;-84
2024/04/08 11:14:31;;;;;;;8.80;4.45;;;;;;;22.21;49.31;100934.69;5169247;27;94965;-88
2024/04/08 11:16:59;;;;;;;8.20;3.80;;;;;;;22.24;48.80;100929.25;5203053;27;95785;-88